Time;durP1;ratioP1;P1;durP2;ratioP2;P2;SDS_P1;SDS_P2;PMS_P1;PMS_P2;Temp;Humidity;BMP_temperature;BMP_pressure;BME280_temperature;BME280_humidity;BME280_pressure;Samples;Min_cycle;Max_cycle;Signal;HPM_P1;HPM_P2
2022/05/04 00:00:32;;;;;;;24.15;9.15;;;11.30;99.90;;;;;;6212553;28;20038;-79
2022/05/04 00:03:37;;;;;;;17.90;7.03;;;11.30;99.90;;;;;;6211338;28;20056;-79
2022/05/04 00:06:39;;;;;;;12.80;7.05;;;11.20;99.90;;;;;;6209937;28;20054;-81
2022/05/04 00:09:40;;;;;;;14.40;7.60;;;11.20;99.90;;;;;;6212617;28;20495;-80
2022/05/04 00:12:44;;;;;;;18.60;8.80;;;11.10;99.90;;;;;;6211228;28;20430;-80
2022/05/04 00:15:45;;;;;;;11.95;7.10;;;11.00;99.90;;;;;;6211239;28;20181;-79
2022/05/04 00:18:47;;;;;;;18.98;8.27;;;11.00;99.90;;;;;;6212973;28;20058;-83
2022/05/04 00:21:49;;;;;;;14.85;8.25;;;11.00;99.90;;;;;;6210996;28;20038;-80
2022/05/04 00:24:50;;;;;;;17.10;7.47;;;10.80;99.90;;;;;;6209446;28;20054;-81
2022/05/04 00:27:53;;;;;;;15.68;7.28;;;10.80;99.90;;;;;;6210353;28;20121;-80
2022/05/04 00:30:55;;;;;;;17.77;8.15;;;10.80;99.90;;;;;;6211656;28;20051;-81
2022/05/04 00:33:57;;;;;;;15.13;7.68;;;10.80;99.90;;;;;;6211460;28;20145;-81
2022/05/04 00:37:01;;;;;;;13.77;7.80;;;10.80;99.90;;;;;;6210367;28;20050;-79
2022/05/04 00:40:03;;;;;;;16.08;8.23;;;10.80;99.90;;;;;;6209689;28;20136;-79
2022/05/04 00:43:20;;;;;;;18.08;7.75;;;10.80;99.90;;;;;;6211930;28;20050;-79
2022/05/04 00:46:23;;;;;;;19.75;8.75;;;10.80;99.90;;;;;;6211081;28;20046;-80
2022/05/04 00:49:24;;;;;;;19.63;7.70;;;10.70;99.90;;;;;;6218189;28;20077;-80
2022/05/04 00:52:26;;;;;;;17.77;7.47;;;10.70;99.90;;;;;;6216811;28;20046;-83
2022/05/04 00:55:28;;;;;;;16.25;7.82;;;10.60;99.90;;;;;;6215756;28;20039;-83
2022/05/04 01:01:52;;;;;;;15.35;7.75;;;10.60;99.90;;;;;;6213741;28;20038;-83
2022/05/04 01:04:53;;;;;;;14.45;7.47;;;10.50;99.90;;;;;;6214239;28;20504;-82
2022/05/04 01:07:55;;;;;;;17.95;8.45;;;10.50;99.90;;;;;;6214579;28;20110;-82
2022/05/04 01:10:57;;;;;;;22.40;8.25;;;10.40;99.90;;;;;;6215825;28;20476;-83
2022/05/04 01:14:02;;;;;;;17.25;7.93;;;10.30;99.90;;;;;;6213744;28;20557;-82
2022/05/04 01:17:04;;;;;;;18.60;7.78;;;10.30;99.90;;;;;;6215026;28;20048;-81
2022/05/04 01:20:08;;;;;;;18.95;9.07;;;10.30;99.90;;;;;;6213352;28;20046;-81
2022/05/04 01:23:11;;;;;;;20.17;9.10;;;10.20;99.90;;;;;;6214266;28;20498;-82
2022/05/04 01:26:16;;;;;;;17.45;7.85;;;10.10;99.90;;;;;;6214075;28;20104;-83
2022/05/04 01:29:18;;;;;;;14.98;7.80;;;10.00;99.90;;;;;;6212703;28;20060;-83
2022/05/04 01:32:20;;;;;;;20.02;8.93;;;9.90;99.90;;;;;;6213087;28;20125;-81
2022/05/04 01:35:21;;;;;;;20.92;8.93;;;9.90;99.90;;;;;;6210397;28;20052;-83
2022/05/04 01:38:25;;;;;;;22.60;8.73;;;9.90;99.90;;;;;;6210373;28;20053;-82
2022/05/04 01:44:46;;;;;;;18.35;7.60;;;9.90;99.90;;;;;;6211865;28;20046;-82
2022/05/04 01:47:49;;;;;;;15.98;7.32;;;9.80;99.90;;;;;;6210628;28;20058;-83
2022/05/04 01:50:51;;;;;;;15.35;7.47;;;9.70;99.90;;;;;;6210851;28;20061;-82
2022/05/04 01:53:54;;;;;;;13.07;7.72;;;9.80;99.90;;;;;;6210226;28;20042;-83
2022/05/04 01:56:56;;;;;;;15.30;7.72;;;9.80;99.90;;;;;;6210583;28;20096;-81
2022/05/04 01:59:57;;;;;;;16.17;7.30;;;9.80;99.90;;;;;;6209564;28;20050;-83
2022/05/04 02:03:00;;;;;;;14.18;7.70;;;9.80;99.90;;;;;;6210332;28;20500;-83
2022/05/04 02:06:02;;;;;;;15.10;7.85;;;9.80;99.90;;;;;;6210984;28;20054;-83
2022/05/04 02:09:06;;;;;;;13.82;7.68;;;9.80;99.90;;;;;;6209603;28;20431;-81
2022/05/04 02:12:08;;;;;;;21.02;7.75;;;9.80;99.90;;;;;;6210969;28;20042;-82
2022/05/04 02:15:12;;;;;;;18.58;7.47;;;9.80;99.90;;;;;;6211881;28;20100;-83
2022/05/04 02:18:13;;;;;;;19.25;7.90;;;9.80;99.90;;;;;;6211096;28;20114;-80
2022/05/04 02:21:16;;;;;;;15.45;8.65;;;9.80;99.90;;;;;;6212785;28;20110;-82
2022/05/04 02:24:19;;;;;;;16.13;7.90;;;9.70;99.90;;;;;;6212568;28;20054;-82
2022/05/04 02:27:21;;;;;;;17.40;7.75;;;9.70;99.90;;;;;;6213343;28;20058;-80
2022/05/04 02:30:23;;;;;;;18.63;8.25;;;9.70;99.90;;;;;;6213630;28;20054;-81
2022/05/04 02:33:25;;;;;;;15.23;7.50;;;9.70;99.90;;;;;;6213832;28;20074;-82
2022/05/04 02:39:47;;;;;;;12.13;7.18;;;9.60;99.90;;;;;;6211333;28;20038;-81
2022/05/04 02:42:49;;;;;;;14.32;7.47;;;9.60;99.90;;;;;;6212023;28;20061;-82
2022/05/04 02:45:50;;;;;;;13.45;6.93;;;9.50;99.90;;;;;;6210497;28;20503;-80
2022/05/04 02:48:52;;;;;;;16.02;8.38;;;9.50;99.90;;;;;;6209494;28;20050;-82
2022/05/04 02:51:54;;;;;;;17.60;7.85;;;9.50;99.90;;;;;;6209291;28;20148;-83
2022/05/04 02:54:57;;;;;;;15.07;7.13;;;9.50;99.90;;;;;;6210529;28;20582;-82
2022/05/04 02:57:58;;;;;;;18.92;8.07;;;9.40;99.90;;;;;;6210378;28;20394;-81
2022/05/04 03:02:26;;;;;;;20.60;8.70;;;9.50;99.90;;;;;;6215602;28;20052;-83
2022/05/04 03:04:31;;;;;;;19.35;8.20;;;9.40;99.90;;;;;;6215733;28;20073;-81
2022/05/04 03:07:33;;;;;;;19.80;9.07;;;9.50;99.90;;;;;;6216423;28;20042;-80
2022/05/04 03:11:54;;;;;;;24.33;9.70;;;9.50;99.90;;;;;;6217266;28;20051;-82
2022/05/04 03:13:58;;;;;;;16.48;9.07;;;9.50;99.90;;;;;;6216240;28;20127;-82
2022/05/04 03:16:59;;;;;;;21.40;10.70;;;9.50;99.90;;;;;;6216293;28;20125;-82
2022/05/04 03:20:02;;;;;;;23.75;9.50;;;9.50;99.90;;;;;;6216502;28;20044;-82
2022/05/04 03:23:03;;;;;;;19.48;9.20;;;9.50;99.90;;;;;;6214699;28;20089;-80
2022/05/04 03:26:10;;;;;;;17.30;9.18;;;9.50;99.90;;;;;;6214375;28;20056;-82
2022/05/04 03:29:12;;;;;;;18.67;9.05;;;9.50;99.90;;;;;;6213122;28;20056;-82
2022/05/04 03:32:14;;;;;;;20.38;9.27;;;9.50;99.90;;;;;;6213379;28;20526;-81
2022/05/04 03:35:17;;;;;;;17.17;9.15;;;9.50;99.90;;;;;;6214207;28;20090;-81
2022/05/04 03:38:18;;;;;;;19.02;8.98;;;9.50;99.90;;;;;;6211929;28;20050;-81
2022/05/04 03:41:21;;;;;;;21.20;10.07;;;9.50;99.90;;;;;;6211858;28;20046;-80
2022/05/04 03:44:24;;;;;;;22.83;9.75;;;9.50;99.90;;;;;;6212282;28;20401;-83
2022/05/04 03:47:25;;;;;;;22.27;10.02;;;9.50;99.90;;;;;;6212657;28;20845;-83
2022/05/04 03:50:27;;;;;;;17.92;9.93;;;9.60;99.90;;;;;;6213403;28;20069;-80
2022/05/04 03:53:29;;;;;;;18.65;9.45;;;9.60;99.90;;;;;;6216153;28;20054;-80
2022/05/04 03:56:32;;;;;;;16.75;9.00;;;9.70;99.90;;;;;;6211646;28;20056;-81
2022/05/04 03:59:34;;;;;;;17.02;9.63;;;9.70;99.90;;;;;;6212390;28;20492;-81
2022/05/04 04:02:36;;;;;;;21.20;9.18;;;9.80;99.90;;;;;;6211500;28;20046;-80
2022/05/04 04:05:37;;;;;;;20.55;9.60;;;9.80;99.90;;;;;;6212000;28;20042;-80
2022/05/04 04:08:39;;;;;;;18.35;9.68;;;9.90;99.90;;;;;;6211153;28;20058;-82
2022/05/04 04:11:42;;;;;;;21.65;11.00;;;9.90;99.90;;;;;;6210233;28;20042;-81
2022/05/04 04:14:44;;;;;;;22.65;10.80;;;9.90;99.90;;;;;;6211248;28;20567;-81
2022/05/04 04:17:47;;;;;;;24.08;10.70;;;10.10;99.90;;;;;;6218472;28;20046;-83
2022/05/04 04:24:09;;;;;;;20.38;10.57;;;10.20;99.90;;;;;;6219249;28;20046;-82
2022/05/04 04:27:12;;;;;;;19.92;10.55;;;10.20;99.90;;;;;;6211763;28;20056;-82
2022/05/04 04:30:15;;;;;;;21.33;9.70;;;10.30;99.90;;;;;;6212734;28;20074;-82
2022/05/04 04:33:16;;;;;;;18.48;9.57;;;10.40;99.90;;;;;;6211191;28;20465;-80
2022/05/04 04:36:18;;;;;;;18.75;9.82;;;10.40;99.90;;;;;;6212111;28;20057;-82
2022/05/04 04:39:20;;;;;;;18.95;9.43;;;10.60;99.90;;;;;;6211370;28;20105;-82
2022/05/04 04:42:23;;;;;;;22.33;9.60;;;10.70;99.90;;;;;;6210375;28;20053;-82
2022/05/04 04:45:26;;;;;;;18.88;10.75;;;10.80;99.90;;;;;;6211017;28;20065;-81
2022/05/04 04:48:27;;;;;;;17.92;9.45;;;11.40;99.90;;;;;;6210329;28;20578;-82
2022/05/04 04:51:29;;;;;;;21.08;10.25;;;11.70;99.90;;;;;;6211221;28;20134;-81
2022/05/04 04:54:31;;;;;;;15.65;8.80;;;11.90;99.90;;;;;;6212698;28;20046;-82
2022/05/04 04:57:34;;;;;;;19.85;9.98;;;11.80;99.90;;;;;;6213032;28;20046;-81
2022/05/04 05:00:36;;;;;;;20.40;10.02;;;11.80;99.90;;;;;;6210722;28;20110;-83
2022/05/04 05:03:38;;;;;;;18.90;8.73;;;11.80;99.90;;;;;;6214308;28;20046;-80
2022/05/04 05:06:40;;;;;;;15.73;9.38;;;11.70;99.90;;;;;;6213795;28;20054;-81
2022/05/04 05:09:41;;;;;;;16.17;9.50;;;11.90;99.90;;;;;;6212690;28;20087;-81
2022/05/04 05:12:45;;;;;;;15.32;9.85;;;11.90;99.90;;;;;;6213922;28;20038;-82
2022/05/04 05:19:06;;;;;;;15.07;9.45;;;11.90;99.90;;;;;;6215131;28;20050;-81
2022/05/04 05:22:08;;;;;;;16.58;9.07;;;11.90;99.90;;;;;;6214249;28;20511;-81
2022/05/04 05:25:10;;;;;;;17.17;8.88;;;11.80;99.90;;;;;;6211561;28;20110;-84
2022/05/04 05:28:13;;;;;;;16.60;8.63;;;11.80;99.90;;;;;;6206034;28;20050;-82
2022/05/04 05:31:14;;;;;;;23.50;10.52;;;11.90;99.90;;;;;;6204854;28;20058;-83
2022/05/04 05:34:16;;;;;;;20.75;10.50;;;11.90;99.90;;;;;;6205010;28;20415;-84
2022/05/04 05:37:20;;;;;;;16.77;9.35;;;12.00;99.90;;;;;;6205985;28;20057;-84
2022/05/04 05:40:22;;;;;;;19.58;10.73;;;12.10;99.90;;;;;;6204770;28;20499;-83
2022/05/04 05:43:26;;;;;;;28.75;10.88;;;12.30;99.90;;;;;;6206150;28;20042;-83
2022/05/04 05:46:29;;;;;;;18.10;11.48;;;13.70;99.90;;;;;;6206836;28;20057;-84
2022/05/04 05:49:31;;;;;;;16.00;9.63;;;15.50;99.90;;;;;;6211772;28;20129;-84
2022/05/04 05:52:32;;;;;;;17.90;9.00;;;16.90;99.20;;;;;;6203043;28;20046;-82
2022/05/04 05:55:35;;;;;;;11.57;8.05;;;17.60;98.00;;;;;;6205628;28;20125;-84
2022/05/04 05:58:38;;;;;;;14.82;8.88;;;17.70;98.40;;;;;;6205095;28;20093;-84
2022/05/04 06:01:41;;;;;;;9.05;7.03;;;17.80;99.40;;;;;;6205551;28;20061;-86
2022/05/04 06:04:43;;;;;;;8.40;6.28;;;18.20;99.90;;;;;;6208894;28;20057;-83
2022/05/04 06:07:45;;;;;;;10.77;7.57;;;18.70;99.90;;;;;;6203180;28;20064;-84
2022/05/04 06:10:47;;;;;;;7.85;5.85;;;18.90;99.90;;;;;;6205889;28;20050;-86
2022/05/04 06:13:53;;;;;;;7.18;4.18;;;19.30;99.90;;;;;;6208135;28;20042;-86
2022/05/04 06:16:55;;;;;;;4.53;2.90;;;19.70;99.90;;;;;;6207535;28;20073;-86
2022/05/04 06:19:56;;;;;;;4.25;2.17;;;20.40;99.90;;;;;;6206116;28;20038;-85
2022/05/04 06:22:58;;;;;;;7.22;2.83;;;21.30;99.10;;;;;;6207431;28;20156;-83
2022/05/04 06:26:00;;;;;;;3.67;2.92;;;22.30;96.80;;;;;;6205155;28;20050;-84
2022/05/04 06:29:03;;;;;;;2.70;2.13;;;23.50;96.00;;;;;;6205311;28;20053;-86
2022/05/04 06:35:26;;;;;;;6.35;2.45;;;26.00;90.10;;;;;;6210218;28;20038;-87
2022/05/04 06:38:28;;;;;;;16.48;4.93;;;27.10;84.40;;;;;;6205035;28;20192;-87
2022/05/04 06:41:30;;;;;;;4.57;2.33;;;28.20;78.30;;;;;;6205709;28;20061;-86
2022/05/04 06:44:33;;;;;;;6.13;2.35;;;29.10;71.80;;;;;;6203707;28;20080;-87
2022/05/04 06:47:35;;;;;;;3.58;1.92;;;29.60;66.60;;;;;;6204766;28;20053;-86
2022/05/04 06:50:37;;;;;;;3.08;2.30;;;30.30;63.90;;;;;;6204248;28;20054;-84
2022/05/04 06:53:39;;;;;;;7.97;2.95;;;31.10;59.90;;;;;;6205892;28;20042;-83
2022/05/04 06:56:40;;;;;;;4.97;3.75;;;31.50;56.80;;;;;;6205752;28;20129;-86
2022/05/04 06:59:44;;;;;;;2.70;2.40;;;31.90;54.30;;;;;;6204926;28;20053;-84
2022/05/04 07:02:45;;;;;;;3.25;2.63;;;32.20;54.30;;;;;;6206618;28;20049;-82
2022/05/04 07:05:47;;;;;;;5.72;1.85;;;32.70;52.60;;;;;;6207042;28;20440;-82
2022/05/04 07:08:49;;;;;;;2.97;1.90;;;32.90;52.30;;;;;;6203218;28;20632;-83
2022/05/04 07:11:51;;;;;;;3.15;2.63;;;33.20;49.60;;;;;;6203868;28;20049;-83
2022/05/04 07:14:56;;;;;;;5.00;2.55;;;33.30;49.80;;;;;;6202509;28;20187;-84
2022/05/04 07:17:57;;;;;;;4.18;3.13;;;33.70;49.00;;;;;;6199932;28;20054;-84
2022/05/04 07:20:59;;;;;;;6.70;3.45;;;34.00;48.20;;;;;;6203009;28;20523;-82
2022/05/04 07:24:01;;;;;;;4.78;2.95;;;34.20;46.90;;;;;;6202326;28;20069;-83
2022/05/04 07:27:03;;;;;;;11.43;3.33;;;34.40;46.20;;;;;;6204358;28;20058;-84
2022/05/04 07:30:08;;;;;;;6.80;3.58;;;34.60;44.20;;;;;;6202890;28;20141;-85
2022/05/04 07:33:09;;;;;;;5.45;4.15;;;34.80;41.50;;;;;;6201904;28;20038;-84
2022/05/04 07:36:11;;;;;;;6.38;3.05;;;34.60;42.20;;;;;;6203008;28;20141;-84
2022/05/04 07:42:21;;;;;;;6.22;3.50;;;34.60;41.80;;;;;;6201188;28;20046;-85
2022/05/04 07:42:34;;;;;;;9.18;4.25;;;35.00;41.90;;;;;;6203451;28;20066;-84
2022/05/04 07:45:38;;;;;;;6.90;3.72;;;35.30;42.50;;;;;;6203225;28;20173;-84
2022/05/04 07:48:39;;;;;;;5.20;3.65;;;35.60;40.40;;;;;;6207802;28;20130;-85
2022/05/04 07:51:41;;;;;;;4.20;3.33;;;36.00;39.90;;;;;;6215833;28;20512;-84
2022/05/04 07:54:43;;;;;;;6.85;3.55;;;36.00;37.80;;;;;;6216173;28;20050;-85
2022/05/04 07:57:47;;;;;;;6.63;4.10;;;35.00;38.60;;;;;;6212950;28;20054;-84
2022/05/04 08:04:19;;;;;;;15.98;3.63;;;31.80;42.90;;;;;;6209391;28;20149;-83
2022/05/04 08:07:21;;;;;;;5.20;4.00;;;30.50;45.20;;;;;;6208923;28;20050;-82
2022/05/04 08:10:24;;;;;;;6.80;4.00;;;29.70;47.70;;;;;;6209139;28;20060;-83
2022/05/04 08:13:26;;;;;;;6.50;4.30;;;29.00;48.50;;;;;;6206446;28;20081;-83
2022/05/04 08:16:29;;;;;;;5.55;4.57;;;28.80;49.60;;;;;;6194647;28;20182;-83
2022/05/04 08:19:31;;;;;;;6.43;4.30;;;28.70;49.40;;;;;;6252837;28;20046;-82
2022/05/04 08:22:32;;;;;;;8.32;4.45;;;28.30;50.40;;;;;;6230435;28;20052;-83
2022/05/04 08:25:34;;;;;;;9.02;5.20;;;27.60;51.10;;;;;;6237981;28;20658;-83
2022/05/04 08:28:36;;;;;;;6.68;5.15;;;27.00;53.00;;;;;;6238344;28;20133;-83
2022/05/04 08:31:39;;;;;;;9.27;5.43;;;26.40;54.20;;;;;;6239361;28;20121;-82
2022/05/04 08:34:41;;;;;;;7.47;4.47;;;26.00;55.80;;;;;;6236298;28;20575;-83
2022/05/04 08:37:43;;;;;;;12.68;5.68;;;25.60;59.20;;;;;;6231976;28;20124;-86
2022/05/04 08:40:45;;;;;;;9.88;6.20;;;25.50;59.00;;;;;;6235726;28;20050;-83
2022/05/04 08:43:49;;;;;;;6.82;5.75;;;26.20;57.80;;;;;;6237204;28;20129;-86
2022/05/04 08:46:52;;;;;;;7.95;5.20;;;26.20;57.40;;;;;;6233933;28;20052;-82
2022/05/04 08:49:53;;;;;;;8.63;5.50;;;25.80;57.10;;;;;;6229228;28;20499;-81
2022/05/04 08:52:55;;;;;;;9.98;5.60;;;25.50;59.00;;;;;;6230996;28;20046;-81
2022/05/04 08:55:57;;;;;;;10.95;5.85;;;25.10;59.40;;;;;;6233044;28;20042;-81
2022/05/04 08:59:01;;;;;;;18.52;5.57;;;24.80;61.90;;;;;;6232696;28;20056;-85
2022/05/04 09:02:05;;;;;;;15.13;6.55;;;24.50;62.70;;;;;;6232308;28;20147;-80
2022/05/04 09:05:23;;;;;;;7.95;6.03;;;24.20;63.40;;;;;;6238777;28;20049;-85
2022/05/04 09:08:25;;;;;;;8.23;6.50;;;23.90;63.10;;;;;;6231587;28;20068;-84
2022/05/04 09:11:27;;;;;;;11.05;5.72;;;23.60;64.40;;;;;;6230538;28;20046;-81
2022/05/04 09:14:29;;;;;;;10.43;6.28;;;23.40;66.60;;;;;;6229438;28;20052;-84
2022/05/04 09:17:32;;;;;;;9.55;5.20;;;23.20;66.40;;;;;;6232079;28;20459;-86
2022/05/04 09:20:47;;;;;;;7.68;6.13;;;23.00;67.70;;;;;;6234011;28;20050;-83
2022/05/04 09:23:53;;;;;;;9.65;6.05;;;23.00;68.70;;;;;;6235446;28;20049;-83
2022/05/04 09:26:57;;;;;;;8.27;5.47;;;23.00;66.80;;;;;;6232254;28;20136;-82
2022/05/04 09:30:00;;;;;;;9.10;5.88;;;23.00;70.20;;;;;;6226759;28;20112;-85
2022/05/04 09:33:10;;;;;;;9.20;6.50;;;23.10;70.60;;;;;;6228523;28;20460;-84
2022/05/04 09:36:13;;;;;;;8.88;6.32;;;23.20;69.30;;;;;;6227883;28;20046;-83
2022/05/04 09:45:59;;;;;;;10.95;5.32;;;26.60;65.10;;;;;;6217452;28;20041;-85
2022/05/04 09:49:11;;;;;;;8.82;4.85;;;29.10;57.40;;;;;;6228819;28;20427;-84
2022/05/04 09:52:14;;;;;;;6.47;5.07;;;30.80;53.70;;;;;;6228595;28;20054;-86
2022/05/04 09:55:17;;;;;;;7.13;5.13;;;31.70;50.70;;;;;;6228246;28;20104;-85
2022/05/04 09:58:19;;;;;;;7.40;5.10;;;32.30;46.90;;;;;;6227569;28;20050;-85
2022/05/04 10:01:20;;;;;;;7.43;5.07;;;32.40;46.50;;;;;;6228539;28;20578;-85
2022/05/04 10:04:39;;;;;;;6.70;4.35;;;32.20;44.60;;;;;;6227058;28;20534;-85
2022/05/04 10:08:01;;;;;;;;;;;31.80;45.40;;;;;;6228546;28;20495;-86
2022/05/04 10:11:19;;;;;;;5.47;4.63;;;31.10;48.20;;;;;;6227928;28;19929;-86
2022/05/04 10:14:25;;;;;;;;;;;30.60;44.50;;;;;;6228647;28;20050;-86
2022/05/04 10:17:29;;;;;;;7.60;4.53;;;30.20;48.90;;;;;;6227527;28;19976;-85
2022/05/04 10:20:40;;;;;;;11.20;4.47;;;30.00;45.20;;;;;;6227853;28;20050;-84
2022/05/04 10:23:51;;;;;;;8.27;5.05;;;29.70;45.10;;;;;;6219544;28;20068;-84
2022/05/04 10:27:03;;;;;;;8.45;3.88;;;29.50;45.90;;;;;;6228595;28;20121;-84
2022/05/04 10:33:41;;;;;;;6.15;3.40;;;29.40;44.80;;;;;;6227227;28;20081;-84
2022/05/04 10:36:57;;;;;;;6.68;3.58;;;29.30;45.50;;;;;;6226536;28;20136;-84
2022/05/04 10:40:19;;;;;;;6.78;4.03;;;29.10;45.00;;;;;;6226719;28;20038;-85
2022/05/04 10:44:16;;;;;;;4.35;3.40;;;28.70;45.00;;;;;;6225938;28;20093;-85
2022/05/04 10:47:33;;;;;;;4.80;3.10;;;28.20;46.00;;;;;;6218744;28;20496;-85
2022/05/04 10:55:55;;;;;;;4.07;3.00;;;26.70;50.50;;;;;;6135395;29;20086;-84
2022/05/04 11:03:23;;;;;;;4.85;3.63;;;25.50;53.80;;;;;;6023942;29;20099;-83
2022/05/04 11:06:37;;;;;;;4.65;2.85;;;25.10;54.90;;;;;;6111498;29;20489;-85
2022/05/04 11:09:42;;;;;;;8.52;3.50;;;25.00;55.40;;;;;;6143186;28;20061;-87
2022/05/04 11:12:45;;;;;;;5.07;3.70;;;25.20;55.90;;;;;;6245382;28;20045;-86
2022/05/04 11:15:56;;;;;;;8.35;4.75;;;25.40;55.80;;;;;;6209906;28;20046;-85
2022/05/04 11:19:00;;;;;;;6.93;4.32;;;25.60;54.50;;;;;;6205353;28;20148;-86
2022/05/04 11:22:02;;;;;;;8.43;4.32;;;25.70;53.30;;;;;;6237061;28;20050;-87
2022/05/04 11:25:04;;;;;;;17.70;5.40;;;26.00;54.40;;;;;;6249151;28;20068;-84
2022/05/04 11:28:08;;;;;;;8.98;5.38;;;26.40;52.20;;;;;;6261281;28;20071;-85
2022/05/04 11:31:10;;;;;;;5.13;4.07;;;26.30;52.00;;;;;;6257090;28;20080;-84
2022/05/04 11:34:15;;;;;;;8.63;5.05;;;26.50;53.10;;;;;;6254458;28;20442;-85
2022/05/04 11:37:17;;;;;;;11.45;4.07;;;26.70;51.50;;;;;;6254730;28;20172;-86
2022/05/04 11:40:20;;;;;;;5.75;3.22;;;26.80;52.00;;;;;;6253102;28;20137;-84
2022/05/04 11:43:26;;;;;;;5.47;3.50;;;27.20;52.30;;;;;;6229516;28;20042;-85
2022/05/04 11:46:31;;;;;;;8.18;3.78;;;27.60;49.60;;;;;;6233876;28;20141;-84
2022/05/04 11:49:34;;;;;;;6.10;3.50;;;27.30;48.60;;;;;;6234294;28;20064;-84
2022/05/04 11:52:36;;;;;;;6.45;3.67;;;27.00;50.90;;;;;;6234613;28;20127;-87
2022/05/04 11:55:37;;;;;;;4.40;2.88;;;27.30;49.70;;;;;;6231526;28;20046;-85
2022/05/04 11:58:54;;;;;;;7.85;3.67;;;27.90;50.10;;;;;;6232737;28;20137;-85
2022/05/04 12:02:05;;;;;;;8.85;4.03;;;28.00;48.70;;;;;;6230781;28;20054;-87
2022/05/04 12:05:07;;;;;;;5.47;3.40;;;28.20;47.40;;;;;;6231042;28;20073;-87
2022/05/04 12:08:09;;;;;;;5.97;3.33;;;28.30;48.00;;;;;;6232603;28;20053;-85
2022/05/04 12:11:11;;;;;;;5.90;3.15;;;28.60;48.30;;;;;;6225080;28;20122;-84
2022/05/04 12:14:16;;;;;;;6.10;3.08;;;28.90;48.20;;;;;;6232427;28;20046;-83
2022/05/04 12:17:25;;;;;;;4.13;2.75;;;29.30;47.20;;;;;;6231163;28;20129;-86
2022/05/04 12:20:27;;;;;;;6.25;3.40;;;29.60;45.40;;;;;;6230964;28;20060;-85
2022/05/04 12:23:30;;;;;;;12.15;4.40;;;30.00;44.50;;;;;;6233257;28;20208;-86
2022/05/04 12:26:57;;;;;;;17.10;3.88;;;30.30;44.10;;;;;;6234183;28;20089;-83
2022/05/04 12:33:55;;;;;;;8.65;3.30;;;30.70;43.40;;;;;;6225646;28;20050;-84
2022/05/04 12:37:05;;;;;;;14.77;3.47;;;30.80;41.90;;;;;;6225221;28;20050;-83
2022/05/04 12:40:23;;;;;;;19.00;4.70;;;30.80;41.90;;;;;;6223376;28;20454;-84
2022/05/04 12:43:48;;;;;;;7.03;2.83;;;31.00;42.10;;;;;;6209829;28;20045;-83
2022/05/04 12:47:01;;;;;;;7.53;2.97;;;31.10;42.00;;;;;;6236194;28;20050;-84
2022/05/04 12:50:03;;;;;;;4.28;2.60;;;31.10;41.80;;;;;;6227613;28;20052;-86
2022/05/04 12:53:06;;;;;;;5.18;2.30;;;31.00;40.70;;;;;;6226619;28;20054;-85
2022/05/04 12:59:28;;;;;;;8.27;3.33;;;29.90;41.30;;;;;;6234462;28;20046;-86
2022/05/04 13:02:42;;;;;;;8.57;2.60;;;28.90;42.40;;;;;;6226863;28;20496;-84
2022/05/04 13:05:44;;;;;;;4.18;2.95;;;28.50;43.60;;;;;;6225510;28;20046;-85
2022/05/04 13:08:48;;;;;;;4.22;2.40;;;28.40;44.20;;;;;;6228142;28;20526;-86
2022/05/04 13:11:50;;;;;;;7.30;3.70;;;28.40;44.60;;;;;;6224505;28;20115;-85
2022/05/04 13:14:51;;;;;;;2.75;2.20;;;28.50;44.10;;;;;;6231244;28;20045;-85
2022/05/04 13:17:55;;;;;;;5.55;2.92;;;28.10;43.60;;;;;;6230585;28;20052;-85
2022/05/04 13:20:57;;;;;;;3.83;2.10;;;27.40;44.40;;;;;;6230521;28;20066;-85
2022/05/04 13:23:59;;;;;;;3.75;2.40;;;27.00;44.90;;;;;;6229052;28;20084;-85
2022/05/04 13:27:01;;;;;;;3.83;2.67;;;26.90;45.60;;;;;;6229164;28;20200;-86
2022/05/04 13:30:03;;;;;;;5.85;2.30;;;27.00;46.00;;;;;;6230790;28;20068;-84
2022/05/04 13:33:07;;;;;;;4.60;1.95;;;27.30;45.20;;;;;;6229450;28;20578;-87
2022/05/04 13:36:10;;;;;;;4.25;2.35;;;27.60;44.60;;;;;;6227311;28;20466;-86
2022/05/04 13:39:11;;;;;;;4.22;1.85;;;28.10;44.80;;;;;;6229985;28;20054;-85
2022/05/04 13:42:14;;;;;;;2.10;1.65;;;28.70;41.70;;;;;;6229659;28;20115;-86
2022/05/04 13:45:16;;;;;;;2.13;1.45;;;29.10;40.50;;;;;;6225439;28;20522;-86
2022/05/04 13:48:19;;;;;;;2.80;2.17;;;29.50;39.80;;;;;;6226080;28;20046;-84
2022/05/04 13:54:37;;;;;;;5.82;2.60;;;30.20;39.70;;;;;;6195871;28;20049;-84
2022/05/04 13:57:39;;;;;;;5.53;2.50;;;30.20;39.50;;;;;;6228054;28;20058;-85
2022/05/04 14:00:41;;;;;;;4.15;2.67;;;30.20;39.20;;;;;;6226950;28;20049;-86
2022/05/04 14:03:44;;;;;;;5.90;2.38;;;29.90;39.10;;;;;;6226923;28;20056;-85
2022/05/04 14:06:48;;;;;;;6.57;1.83;;;29.60;39.40;;;;;;6226552;28;20057;-84
2022/05/04 14:09:50;;;;;;;8.73;2.92;;;29.40;40.60;;;;;;6226936;28;20042;-85
2022/05/04 14:12:51;;;;;;;5.40;2.40;;;29.30;41.10;;;;;;6225960;28;20045;-85
2022/05/04 14:15:54;;;;;;;3.47;2.50;;;29.30;41.10;;;;;;6226240;28;20037;-86
2022/05/04 14:19:21;;;;;;;4.45;2.22;;;29.40;40.50;;;;;;6225820;28;20549;-86
2022/05/04 14:22:23;;;;;;;7.00;1.88;;;29.50;39.40;;;;;;6224199;28;20475;-87
2022/05/04 14:25:26;;;;;;;2.08;1.45;;;29.40;38.90;;;;;;6222502;28;20070;-87
2022/05/04 14:28:29;;;;;;;1.77;0.60;;;29.60;37.20;;;;;;6222142;28;20054;-86
2022/05/04 14:31:31;;;;;;;1.90;1.02;;;29.90;35.30;;;;;;6223061;28;20053;-86
2022/05/04 14:34:34;;;;;;;5.15;1.38;;;30.20;34.20;;;;;;6223361;28;20050;-86
2022/05/04 14:37:36;;;;;;;2.10;1.00;;;30.40;34.30;;;;;;6222180;28;20132;-86
2022/05/04 14:40:38;;;;;;;1.95;1.20;;;30.70;33.40;;;;;;6222980;28;20053;-87
2022/05/04 14:43:40;;;;;;;3.75;1.30;;;31.00;32.90;;;;;;6227289;28;20104;-87
2022/05/04 14:46:42;;;;;;;1.85;0.73;;;31.40;33.20;;;;;;6226865;28;20053;-86
2022/05/04 14:49:48;;;;;;;1.85;1.00;;;31.50;30.90;;;;;;6225919;28;20049;-87
2022/05/04 14:52:49;;;;;;;3.58;1.33;;;31.60;31.20;;;;;;6230611;28;20045;-86
2022/05/04 14:55:53;;;;;;;3.80;1.33;;;31.70;32.90;;;;;;6241680;28;20054;-86
2022/05/04 14:58:54;;;;;;;2.75;1.05;;;31.70;33.00;;;;;;6240975;28;20160;-87
2022/05/04 15:01:57;;;;;;;4.50;1.50;;;31.60;33.40;;;;;;6231518;28;20101;-86
2022/05/04 15:05:02;;;;;;;2.15;1.48;;;31.60;34.40;;;;;;6233734;28;20053;-86
2022/05/04 15:08:04;;;;;;;3.83;1.60;;;31.50;35.30;;;;;;6236820;28;20050;-84
2022/05/04 15:11:07;;;;;;;3.45;1.70;;;31.40;35.70;;;;;;6216464;28;20054;-86
2022/05/04 15:14:09;;;;;;;2.90;1.50;;;31.10;36.00;;;;;;6234065;28;20141;-86
2022/05/04 15:17:10;;;;;;;3.90;1.90;;;30.70;36.60;;;;;;6232908;28;20042;-86
2022/05/04 15:20:14;;;;;;;4.55;1.80;;;30.50;37.40;;;;;;6232109;28;20046;-86
2022/05/04 15:23:15;;;;;;;2.70;1.55;;;30.40;37.30;;;;;;6235841;28;20073;-86
2022/05/04 15:26:17;;;;;;;3.10;1.45;;;30.30;36.70;;;;;;6235253;28;20046;-85
2022/05/04 15:29:20;;;;;;;5.60;1.60;;;30.10;36.30;;;;;;6233929;28;20124;-86
2022/05/04 15:32:22;;;;;;;6.10;1.33;;;29.90;36.80;;;;;;6234052;28;20061;-84
2022/05/04 15:35:27;;;;;;;4.65;1.48;;;29.60;37.10;;;;;;6233766;28;20044;-86
2022/05/04 15:38:29;;;;;;;7.13;3.13;;;29.40;37.20;;;;;;6236771;28;20496;-84
2022/05/04 15:41:31;;;;;;;3.83;2.05;;;29.20;38.40;;;;;;6235306;28;20115;-84
2022/05/04 15:44:33;;;;;;;3.05;1.85;;;29.10;39.00;;;;;;6235707;28;20092;-84
2022/05/04 15:47:36;;;;;;;3.65;2.20;;;28.60;38.80;;;;;;6232671;28;20108;-85
2022/05/04 15:55:23;;;;;;;3.17;2.00;;;27.30;40.00;;;;;;6229544;28;20042;-85
2022/05/04 16:06:22;;;;;;;2.60;1.23;;;25.60;43.00;;;;;;6233511;28;20125;-85
2022/05/04 16:10:13;;;;;;;5.03;1.73;;;25.10;44.30;;;;;;6230040;28;20050;-83
2022/05/04 16:13:17;;;;;;;2.97;2.45;;;24.70;45.20;;;;;;6219281;28;20045;-86
2022/05/04 16:23:53;;;;;;;2.53;1.80;;;23.90;47.60;;;;;;6208130;28;20042;-88
2022/05/04 16:27:33;;;;;;;8.20;3.65;;;23.60;47.20;;;;;;6234241;28;20054;-85
2022/05/04 16:30:36;;;;;;;2.88;2.22;;;23.30;47.30;;;;;;6232212;28;20122;-85
2022/05/04 16:34:07;;;;;;;5.20;3.30;;;23.00;47.50;;;;;;6233224;28;20053;-88
2022/05/04 16:37:09;;;;;;;2.15;1.25;;;22.80;48.60;;;;;;6233783;28;20050;-84
2022/05/04 16:40:13;;;;;;;3.92;1.45;;;22.70;48.90;;;;;;6232776;28;20527;-87
2022/05/04 16:43:15;;;;;;;3.63;2.25;;;22.50;49.20;;;;;;6227870;28;20133;-88
2022/05/04 16:46:17;;;;;;;13.65;4.63;;;22.30;49.70;;;;;;6233130;28;20464;-87
2022/05/04 16:49:21;;;;;;;7.20;3.00;;;22.10;50.20;;;;;;6233359;28;20448;-87
2022/05/04 16:52:28;;;;;;;6.03;2.17;;;22.10;50.50;;;;;;6233371;28;20067;-87
2022/05/04 16:55:35;;;;;;;4.93;1.95;;;21.80;51.00;;;;;;6232118;28;20046;-88
2022/05/04 16:58:37;;;;;;;7.10;2.20;;;21.80;52.10;;;;;;6231296;28;20064;-84
2022/05/04 17:01:45;;;;;;;11.10;3.65;;;21.80;53.00;;;;;;6231020;28;20048;-86
2022/05/04 17:04:49;;;;;;;4.22;1.33;;;21.70;53.80;;;;;;6231911;28;20069;-86
2022/05/04 17:07:51;;;;;;;2.78;1.35;;;21.80;53.00;;;;;;6232008;28;20069;-85